createdAt,value
2018-06-25T00:02:16.525Z,13.57
2018-06-25T00:04:44.568Z,25.30
2018-06-25T00:07:12.658Z,17.17
2018-06-25T00:09:40.713Z,23.37
2018-06-25T00:12:08.770Z,30.00
2018-06-25T00:14:37.017Z,12.50
2018-06-25T00:17:05.094Z,23.87
2018-06-25T00:19:33.138Z,18.63
2018-06-25T00:22:01.187Z,11.30
2018-06-25T00:24:29.245Z,18.67
2018-06-25T00:26:57.602Z,18.97
2018-06-25T00:29:25.653Z,13.33
2018-06-25T00:31:54.089Z,14.13
2018-06-25T00:34:22.146Z,20.93
2018-06-25T00:36:49.990Z,14.27
2018-06-25T00:39:18.041Z,21.67
2018-06-25T00:41:46.089Z,17.40
2018-06-25T00:44:14.157Z,23.80
2018-06-25T00:46:42.201Z,24.50
2018-06-25T00:49:10.245Z,19.67
2018-06-25T00:51:38.296Z,21.83
2018-06-25T00:54:06.341Z,19.00
2018-06-25T00:56:34.385Z,19.43
2018-06-25T00:59:13.707Z,15.33
2018-06-25T01:01:41.755Z,18.17
2018-06-25T01:04:09.831Z,23.13
2018-06-25T01:06:37.874Z,18.80
2018-06-25T01:09:08.568Z,21.67
2018-06-25T01:11:36.685Z,15.43
2018-06-25T01:14:04.817Z,17.53
2018-06-25T01:16:32.918Z,24.17
2018-06-25T01:19:00.996Z,18.77
2018-06-25T01:21:29.045Z,17.70
2018-06-25T01:23:57.105Z,28.20
2018-06-25T01:26:25.145Z,24.47
2018-06-25T01:28:53.190Z,22.23
2018-06-25T01:31:21.234Z,20.60
2018-06-25T01:33:49.273Z,25.90
2018-06-25T01:36:17.611Z,28.60
2018-06-25T01:38:45.645Z,19.93
2018-06-25T01:41:13.759Z,20.77
2018-06-25T01:43:41.982Z,15.03
2018-06-25T01:46:10.040Z,18.27
2018-06-25T01:48:38.097Z,21.40
2018-06-25T01:51:06.122Z,21.63
2018-06-25T01:53:34.193Z,24.93
2018-06-25T01:56:02.249Z,19.67
2018-06-25T01:58:30.301Z,12.67
2018-06-25T02:00:58.897Z,16.40
2018-06-25T02:03:26.946Z,26.67
2018-06-25T02:05:55.075Z,25.43
2018-06-25T02:08:23.106Z,26.10
2018-06-25T02:10:51.041Z,20.50
2018-06-25T02:13:18.885Z,18.90
2018-06-25T02:15:47.052Z,14.33
2018-06-25T02:18:15.134Z,13.33
2018-06-25T02:20:43.179Z,16.67
2018-06-25T02:23:11.237Z,18.80
2018-06-25T02:25:39.309Z,14.47
2018-06-25T02:28:07.475Z,20.43
2018-06-25T02:30:36.096Z,27.20
2018-06-25T02:33:04.173Z,13.33
2018-06-25T02:35:32.244Z,14.83
2018-06-25T02:38:01.151Z,14.67
2018-06-25T02:40:29.213Z,17.27
2018-06-25T02:42:57.281Z,22.00
2018-06-25T02:45:25.438Z,17.37
2018-06-25T02:47:53.488Z,15.13
2018-06-25T02:50:21.410Z,13.97
2018-06-25T02:52:49.474Z,16.23
2018-06-25T02:55:17.552Z,23.13
2018-06-25T02:57:45.601Z,22.20
2018-06-25T03:00:13.656Z,12.67
2018-06-25T03:02:41.686Z,17.43
2018-06-25T03:05:09.734Z,13.87
2018-06-25T03:07:37.782Z,24.77
2018-06-25T03:10:05.826Z,18.43
2018-06-25T03:12:34.080Z,21.77
2018-06-25T03:15:02.135Z,20.00
2018-06-25T03:17:30.170Z,19.13
2018-06-25T03:19:58.431Z,19.53
2018-06-25T03:22:26.485Z,18.80
2018-06-25T03:24:54.535Z,19.40
2018-06-25T03:27:22.588Z,22.73
2018-06-25T03:29:50.638Z,10.70
2018-06-25T03:32:18.742Z,18.00
2018-06-25T03:34:46.773Z,16.53
2018-06-25T03:37:14.886Z,22.47
2018-06-25T03:39:42.925Z,22.97
2018-06-25T03:42:10.953Z,14.77
2018-06-25T03:44:39.505Z,23.77
2018-06-25T03:47:07.641Z,15.73
2018-06-25T03:49:35.703Z,17.20
2018-06-25T03:52:03.758Z,14.30
2018-06-25T03:54:31.813Z,18.70
2018-06-25T03:56:59.837Z,19.33
2018-06-25T03:59:28.073Z,20.23
2018-06-25T04:01:56.102Z,21.93
2018-06-25T04:04:24.145Z,25.40
2018-06-25T04:06:52.210Z,14.27
2018-06-25T04:09:20.250Z,14.03
2018-06-25T04:11:48.309Z,22.53
2018-06-25T04:14:16.386Z,22.67
2018-06-25T04:16:44.423Z,16.10
2018-06-25T04:19:12.618Z,24.07
2018-06-25T04:21:40.686Z,20.37
2018-06-25T04:24:08.729Z,21.20
2018-06-25T04:26:36.562Z,22.17
2018-06-25T04:29:04.617Z,20.40
2018-06-25T04:31:32.665Z,19.73
2018-06-25T04:34:00.860Z,21.30
2018-06-25T04:36:29.110Z,24.83
2018-06-25T04:38:57.142Z,14.03
2018-06-25T04:41:25.194Z,21.23
2018-06-25T04:43:53.230Z,17.90
2018-06-25T04:46:21.288Z,27.60
2018-06-25T04:48:49.346Z,25.47
2018-06-25T04:51:17.385Z,35.07
2018-06-25T04:53:45.428Z,19.80
2018-06-25T04:56:13.469Z,25.27
2018-06-25T04:58:41.346Z,18.43
2018-06-25T05:01:09.398Z,35.63
2018-06-25T05:03:37.745Z,20.97
2018-06-25T05:06:05.803Z,20.40
2018-06-25T05:08:33.877Z,23.63
2018-06-25T05:11:02.090Z,23.27
2018-06-25T05:13:30.148Z,16.47
2018-06-25T05:15:58.190Z,17.37
2018-06-25T05:18:26.314Z,18.70
2018-06-25T05:20:54.391Z,21.80
2018-06-25T05:23:22.413Z,23.73
2018-06-25T05:25:50.453Z,22.07
2018-06-25T05:28:19.005Z,29.13
2018-06-25T05:30:46.845Z,17.17
2018-06-25T05:33:14.895Z,29.20
2018-06-25T05:35:42.939Z,32.67
2018-06-25T05:38:10.972Z,21.90
2018-06-25T05:40:38.804Z,13.27
2018-06-25T05:43:06.841Z,17.10
2018-06-25T05:45:34.889Z,27.93
2018-06-25T05:48:02.943Z,32.77
2018-06-25T05:50:31.102Z,16.50
2018-06-25T05:52:59.156Z,22.87
2018-06-25T05:55:27.505Z,23.40
2018-06-25T05:57:55.531Z,21.70
2018-06-25T06:00:23.573Z,31.87
2018-06-25T06:02:51.633Z,31.43
2018-06-25T06:05:19.778Z,24.83
2018-06-25T06:07:47.825Z,25.13
2018-06-25T06:10:15.742Z,30.20
2018-06-25T06:12:43.798Z,22.57
2018-06-25T06:15:11.830Z,24.70
2018-06-25T06:17:39.889Z,23.60
2018-06-25T06:20:07.930Z,26.97
2018-06-25T06:22:36.154Z,34.33
2018-06-25T06:25:04.192Z,28.30
2018-06-25T06:27:32.250Z,38.40
2018-06-25T06:30:00.428Z,32.20
2018-06-25T06:32:28.471Z,31.00
2018-06-25T06:34:56.661Z,37.67
2018-06-25T06:37:24.749Z,24.80
2018-06-25T06:39:52.833Z,21.77
2018-06-25T06:42:20.836Z,22.27
2018-06-25T06:44:49.109Z,26.77
2018-06-25T06:47:17.156Z,21.67
2018-06-25T06:49:45.178Z,25.73
2018-06-25T06:52:13.225Z,26.47
2018-06-25T06:54:41.274Z,27.17
2018-06-25T06:57:09.312Z,24.53
2018-06-25T06:59:37.357Z,33.20
2018-06-25T07:02:05.625Z,26.23
2018-06-25T07:04:33.653Z,27.63
2018-06-25T07:07:01.705Z,30.67
2018-06-25T07:09:29.760Z,30.27
2018-06-25T07:11:57.817Z,21.90
2018-06-25T07:14:25.861Z,19.63
2018-06-25T07:16:55.060Z,33.00
2018-06-25T07:19:23.141Z,32.10
2018-06-25T07:21:52.793Z,35.97
2018-06-25T07:24:20.820Z,22.37
2018-06-25T07:26:48.876Z,28.33
2018-06-25T07:29:17.136Z,26.13
2018-06-25T07:31:45.166Z,45.00
2018-06-25T07:34:13.203Z,27.23
2018-06-25T07:36:41.262Z,26.63
2018-06-25T07:39:09.898Z,30.00
2018-06-25T07:41:37.962Z,45.97
2018-06-25T07:44:06.006Z,31.50
2018-06-25T07:46:34.249Z,44.13
2018-06-25T07:49:02.290Z,47.83
2018-06-25T07:51:30.329Z,33.67
2018-06-25T07:53:58.386Z,44.47
2018-06-25T07:56:26.468Z,52.87
2018-06-25T07:58:54.546Z,40.93
2018-06-25T08:01:22.605Z,43.93
2018-06-25T08:03:50.641Z,41.77
2018-06-25T08:06:18.686Z,41.97
2018-06-25T08:08:46.734Z,29.40
2018-06-25T08:11:21.713Z,36.80
2018-06-25T08:13:50.382Z,46.07
2018-06-25T08:16:18.465Z,35.07
2018-06-25T08:18:46.871Z,33.90
2018-06-25T08:21:15.393Z,30.73
2018-06-25T08:23:43.565Z,41.17
2018-06-25T08:26:11.670Z,40.83
2018-06-25T08:28:39.713Z,44.70
2018-06-25T08:31:07.813Z,44.10
2018-06-25T08:33:35.874Z,38.53
2018-06-25T08:36:04.103Z,29.27
2018-06-25T08:38:32.133Z,32.13
2018-06-25T08:41:00.169Z,32.97
2018-06-25T08:43:28.282Z,29.20
2018-06-25T08:45:56.250Z,26.07
2018-06-25T08:48:24.280Z,49.33
2018-06-25T08:50:52.436Z,38.30
2018-06-25T08:53:20.515Z,36.83
2018-06-25T08:55:48.553Z,31.27
2018-06-25T08:58:16.681Z,48.23
2018-06-25T09:00:44.733Z,34.07
2018-06-25T09:03:12.840Z,33.70
2018-06-25T09:05:40.938Z,35.70
2018-06-25T09:08:08.987Z,31.27
2018-06-25T09:10:37.041Z,27.47
2018-06-25T09:13:05.082Z,33.13
2018-06-25T09:15:33.172Z,39.10
2018-06-25T09:18:01.213Z,29.73
2018-06-25T09:20:29.305Z,42.70
2018-06-25T09:22:57.384Z,40.97
2018-06-25T09:25:25.409Z,36.47
2018-06-25T09:27:53.467Z,27.80
2018-06-25T09:30:21.521Z,34.97
2018-06-25T09:32:49.679Z,43.37
2018-06-25T09:35:17.983Z,24.17
2018-06-25T09:37:46.026Z,28.73
2018-06-25T09:40:13.885Z,37.33
2018-06-25T09:42:41.931Z,42.87
2018-06-25T09:45:11.030Z,37.70
2018-06-25T09:47:39.098Z,37.67
2018-06-25T09:50:07.147Z,49.53
2018-06-25T09:52:35.395Z,42.27
2018-06-25T09:55:03.883Z,42.30
2018-06-25T09:57:31.874Z,27.60
2018-06-25T09:59:59.911Z,36.87
2018-06-25T10:02:27.941Z,28.57
2018-06-25T10:04:56.003Z,45.57
2018-06-25T10:07:24.182Z,53.77
2018-06-25T10:09:52.229Z,42.23
2018-06-25T10:12:20.283Z,35.10
2018-06-25T10:14:48.366Z,27.20
2018-06-25T10:17:16.402Z,33.10
2018-06-25T10:19:45.066Z,48.30
2018-06-25T10:22:13.117Z,41.27
2018-06-25T10:24:41.241Z,35.13
2018-06-25T10:27:09.289Z,30.97
2018-06-25T10:29:37.342Z,51.03
2018-06-25T10:32:06.042Z,40.23
2018-06-25T10:34:34.098Z,51.73
2018-06-25T10:37:02.147Z,44.50
2018-06-25T10:39:30.190Z,34.20
2018-06-25T10:41:58.223Z,24.23
2018-06-25T10:44:26.401Z,24.33
2018-06-25T10:46:54.463Z,34.27
2018-06-25T10:49:22.515Z,32.37
2018-06-25T10:51:50.552Z,36.70
2018-06-25T10:54:18.602Z,28.77
2018-06-25T10:56:46.662Z,32.13
2018-06-25T10:59:14.701Z,30.97
2018-06-25T11:01:42.754Z,27.10
2018-06-25T11:04:10.824Z,32.60
2018-06-25T11:06:38.896Z,38.13
2018-06-25T11:09:09.090Z,39.47
2018-06-25T11:11:37.328Z,35.43
2018-06-25T11:14:05.445Z,26.53
2018-06-25T11:16:33.982Z,28.23
2018-06-25T11:19:02.031Z,25.20
2018-06-25T11:21:30.069Z,17.73
2018-06-25T11:23:58.129Z,26.50
2018-06-25T11:26:26.230Z,27.87
2018-06-25T11:28:54.289Z,22.00
2018-06-25T11:31:24.134Z,19.07
2018-06-25T11:33:52.197Z,24.53
2018-06-25T11:36:20.674Z,31.27
2018-06-25T11:38:48.709Z,32.10
2018-06-25T11:41:16.749Z,33.70
2018-06-25T11:43:45.277Z,22.80
2018-06-25T11:46:13.345Z,34.60
2018-06-25T11:48:41.411Z,24.93
2018-06-25T11:51:09.676Z,27.53
2018-06-25T11:53:37.719Z,17.27
2018-06-25T11:56:05.549Z,25.13
2018-06-25T11:58:33.689Z,26.67
2018-06-25T12:01:01.797Z,24.33
2018-06-25T12:03:29.942Z,48.13
2018-06-25T12:05:57.909Z,31.83
2018-06-25T12:08:25.938Z,35.67
2018-06-25T12:10:54.109Z,22.53
2018-06-25T12:13:22.174Z,34.93
2018-06-25T12:15:50.015Z,37.27
2018-06-25T12:18:18.056Z,23.43
2018-06-25T12:20:46.126Z,25.63
2018-06-25T12:23:14.151Z,20.13
2018-06-25T12:25:42.195Z,19.27
2018-06-25T12:28:10.230Z,30.13
2018-06-25T12:30:38.270Z,43.43
2018-06-25T12:33:06.879Z,32.27
2018-06-25T12:35:35.098Z,26.20
2018-06-25T12:38:03.192Z,34.30
2018-06-25T12:40:31.395Z,35.37
2018-06-25T12:42:59.654Z,28.23
2018-06-25T12:45:27.717Z,40.03
2018-06-25T12:47:55.745Z,28.73
2018-06-25T12:50:23.778Z,31.47
2018-06-25T12:52:51.826Z,24.77
2018-06-25T12:55:19.874Z,31.90
2018-06-25T12:57:47.929Z,25.00
2018-06-25T13:00:16.027Z,23.03
2018-06-25T13:02:44.054Z,23.50
2018-06-25T13:05:11.918Z,35.47
2018-06-25T13:07:40.106Z,20.53
2018-06-25T13:10:08.165Z,17.30
2018-06-25T13:12:36.201Z,15.30
2018-06-25T13:15:04.386Z,28.33
2018-06-25T13:17:32.621Z,30.43
2018-06-25T13:20:00.678Z,31.57
2018-06-25T13:22:28.720Z,18.97
2018-06-25T13:24:56.776Z,28.57
2018-06-25T13:27:24.826Z,21.73
2018-06-25T13:29:52.890Z,30.00
2018-06-25T13:32:20.932Z,23.50
2018-06-25T13:34:48.766Z,21.50
2018-06-25T13:37:16.805Z,30.60
2018-06-25T13:39:44.846Z,31.80
2018-06-25T13:42:12.917Z,18.23
2018-06-25T13:44:40.993Z,19.30
2018-06-25T13:47:09.057Z,24.50
2018-06-25T13:49:36.901Z,17.00
2018-06-25T13:52:05.037Z,26.67
2018-06-25T13:54:33.091Z,23.93
2018-06-25T13:57:01.186Z,25.20
2018-06-25T13:59:29.238Z,28.33
2018-06-25T14:01:57.314Z,27.03
2018-06-25T14:04:25.344Z,29.07
2018-06-25T14:06:53.416Z,22.00
2018-06-25T14:09:21.494Z,30.20
2018-06-25T14:11:49.708Z,23.73
2018-06-25T14:14:17.805Z,19.73
2018-06-25T14:16:46.522Z,20.20
2018-06-25T14:19:14.506Z,23.03
2018-06-25T14:21:42.386Z,24.50
2018-06-25T14:24:15.777Z,25.57
2018-06-25T14:26:44.845Z,22.03
2018-06-25T14:29:18.308Z,25.53
2018-06-25T14:31:46.442Z,33.67
2018-06-25T14:34:19.947Z,24.50
2018-06-25T14:36:48.025Z,34.90
2018-06-25T14:39:16.207Z,28.07
2018-06-25T14:41:45.046Z,30.87
2018-06-25T14:44:15.131Z,25.53
2018-06-25T14:46:43.213Z,14.40
2018-06-25T14:49:11.287Z,41.10
2018-06-25T14:51:39.361Z,25.33
2018-06-25T14:54:07.369Z,24.97
2018-06-25T14:56:35.502Z,21.23
2018-06-25T14:59:03.662Z,27.00
2018-06-25T15:01:31.755Z,24.07
2018-06-25T15:03:59.857Z,27.60
2018-06-25T15:06:27.951Z,35.07
2018-06-25T15:08:56.026Z,30.20
2018-06-25T15:11:23.862Z,24.53
2018-06-25T15:13:51.933Z,33.63
2018-06-25T15:16:20.033Z,16.03
2018-06-25T15:18:48.281Z,20.20
2018-06-25T15:21:16.342Z,18.97
2018-06-25T15:23:45.376Z,26.80
2018-06-25T15:26:13.915Z,30.03
2018-06-25T15:28:41.996Z,20.70
2018-06-25T15:31:10.119Z,14.90
2018-06-25T15:33:38.005Z,25.07
2018-06-25T15:36:06.162Z,17.10
2018-06-25T15:38:34.254Z,25.10
2018-06-25T15:41:02.437Z,22.37
2018-06-25T15:43:30.512Z,15.63
2018-06-25T15:45:58.529Z,16.60
2018-06-25T15:48:26.648Z,22.80
2018-06-25T15:50:54.717Z,13.83
2018-06-25T15:53:23.073Z,22.40
2018-06-25T15:55:51.286Z,28.73
2018-06-25T15:58:19.426Z,39.70
2018-06-25T16:00:47.590Z,29.33
2018-06-25T16:03:15.698Z,32.27
2018-06-25T16:05:43.969Z,24.00
2018-06-25T16:08:12.027Z,14.80
2018-06-25T16:10:40.082Z,19.53
2018-06-25T16:13:07.968Z,21.77
2018-06-25T16:15:36.025Z,11.67
2018-06-25T16:18:04.173Z,13.47
2018-06-25T16:20:32.296Z,14.23
2018-06-25T16:23:00.474Z,22.47
2018-06-25T16:25:28.494Z,12.10
2018-06-25T16:27:56.542Z,16.77
2018-06-25T16:30:24.603Z,15.33
2018-06-25T16:32:52.602Z,28.37
2018-06-25T16:35:20.857Z,11.63
2018-06-25T16:37:48.950Z,6.93
2018-06-25T16:40:17.231Z,15.03
2018-06-25T16:42:45.995Z,17.40
2018-06-25T16:45:14.072Z,11.43
2018-06-25T16:47:42.336Z,19.40
2018-06-25T16:50:10.229Z,17.70
2018-06-25T16:52:38.100Z,10.60
2018-06-25T16:55:06.285Z,14.00
2018-06-25T16:57:34.343Z,12.90
2018-06-25T17:00:02.403Z,21.27
2018-06-25T17:02:31.488Z,18.23
2018-06-25T17:04:59.551Z,19.40
2018-06-25T17:07:27.626Z,17.43
2018-06-25T17:09:55.698Z,13.27
2018-06-25T17:12:23.973Z,15.80
2018-06-25T17:14:52.026Z,19.60
2018-06-25T17:17:20.078Z,15.57
2018-06-25T17:19:48.105Z,14.27
2018-06-25T17:22:16.170Z,21.80
2018-06-25T17:24:44.262Z,30.27
2018-06-25T17:27:12.310Z,25.80
2018-06-25T17:29:41.089Z,20.97
2018-06-25T17:32:10.698Z,29.33
2018-06-25T17:34:38.766Z,31.93
2018-06-25T17:37:06.901Z,24.37
2018-06-25T17:39:34.945Z,27.87
2018-06-25T17:42:03.096Z,23.80
2018-06-25T17:44:30.971Z,32.40
2018-06-25T17:46:59.038Z,33.43
2018-06-25T17:49:27.101Z,42.23
2018-06-25T17:51:55.177Z,25.83
2018-06-25T17:54:23.238Z,30.60
2018-06-25T17:56:51.281Z,24.03
2018-06-25T17:59:19.360Z,32.13
2018-06-25T18:01:47.456Z,29.97
2018-06-25T18:04:15.710Z,27.63
2018-06-25T18:06:44.141Z,24.23
2018-06-25T18:09:12.523Z,25.20
2018-06-25T18:11:40.686Z,22.00
2018-06-25T18:14:08.761Z,27.43
2018-06-25T18:16:37.077Z,38.47
2018-06-25T18:19:05.331Z,26.20
2018-06-25T18:21:33.181Z,37.93
2018-06-25T18:24:01.720Z,23.20
2018-06-25T18:26:29.805Z,28.47
2018-06-25T18:28:57.982Z,23.70
2018-06-25T18:31:25.910Z,37.83
2018-06-25T18:33:53.971Z,29.73
2018-06-25T18:36:22.501Z,30.20
2018-06-25T18:38:50.621Z,29.43
2018-06-25T18:41:18.693Z,33.30
2018-06-25T18:43:46.891Z,32.90
2018-06-25T18:46:15.078Z,24.67
2018-06-25T18:48:43.837Z,44.60
2018-06-25T18:51:11.827Z,22.73
2018-06-25T18:53:39.876Z,27.17
2018-06-25T18:56:07.720Z,27.40
2018-06-25T18:58:35.801Z,22.67
2018-06-25T19:01:04.137Z,22.90
2018-06-25T19:03:32.201Z,27.83
2018-06-25T19:06:00.298Z,26.40
2018-06-25T19:08:28.406Z,25.30
2018-06-25T19:10:56.459Z,25.70
2018-06-25T19:13:24.569Z,20.50
2018-06-25T19:15:52.664Z,30.97
2018-06-25T19:18:20.757Z,22.13
2018-06-25T19:20:49.487Z,24.87
2018-06-25T19:23:17.580Z,25.70
2018-06-25T19:25:45.746Z,30.43
2018-06-25T19:28:13.838Z,23.03
2018-06-25T19:30:41.917Z,25.87
2018-06-25T19:33:09.977Z,27.27
2018-06-25T19:35:38.043Z,35.67
2018-06-25T19:38:06.118Z,30.63
2018-06-25T19:40:33.992Z,33.83
2018-06-25T19:43:01.876Z,23.07
2018-06-25T19:45:29.961Z,38.30
2018-06-25T19:47:57.925Z,26.60
2018-06-25T19:50:26.010Z,22.93
2018-06-25T19:52:54.082Z,27.57
2018-06-25T19:55:22.154Z,25.07
2018-06-25T19:57:50.201Z,27.40
2018-06-25T20:00:18.109Z,40.83
2018-06-25T20:02:46.212Z,24.90
2018-06-25T20:05:14.218Z,25.33
2018-06-25T20:07:42.314Z,42.60
2018-06-25T20:10:10.402Z,33.20
2018-06-25T20:12:38.698Z,40.43
2018-06-25T20:15:06.779Z,35.90
2018-06-25T20:17:34.848Z,22.87
2018-06-25T20:20:03.176Z,30.73
2018-06-25T20:22:31.292Z,26.67
2018-06-25T20:24:59.281Z,22.20
2018-06-25T20:27:27.342Z,27.40
2018-06-25T20:29:55.397Z,29.60
2018-06-25T20:32:23.481Z,25.93
2018-06-25T20:34:51.521Z,23.37
2018-06-25T20:37:19.565Z,23.53
2018-06-25T20:39:47.678Z,21.90
2018-06-25T20:42:15.730Z,18.57
2018-06-25T20:44:43.782Z,27.97
2018-06-25T20:47:11.814Z,20.20
2018-06-25T20:49:39.879Z,23.47
2018-06-25T20:52:08.095Z,31.23
2018-06-25T20:54:37.053Z,33.33
2018-06-25T20:57:05.129Z,39.57
2018-06-25T20:59:33.169Z,26.83
2018-06-25T21:02:01.257Z,24.27
2018-06-25T21:04:29.295Z,27.53
2018-06-25T21:06:57.359Z,18.17
2018-06-25T21:09:25.396Z,22.57
2018-06-25T21:11:53.467Z,28.03
2018-06-25T21:14:21.533Z,19.10
2018-06-25T21:16:49.715Z,16.00
2018-06-25T21:19:17.718Z,32.23
2018-06-25T21:21:45.574Z,26.07
2018-06-25T21:24:13.623Z,14.87
2018-06-25T21:26:42.682Z,20.93
2018-06-25T21:29:10.721Z,25.40
2018-06-25T21:31:38.781Z,18.13
2018-06-25T21:34:06.871Z,17.60
2018-06-25T21:36:35.062Z,11.60
2018-06-25T21:39:03.170Z,17.30
2018-06-25T21:41:31.209Z,12.30
2018-06-25T21:43:59.242Z,12.03
2018-06-25T21:46:27.474Z,14.33
2018-06-25T21:48:55.512Z,16.83
2018-06-25T21:51:23.568Z,10.70
2018-06-25T21:53:51.610Z,9.97
2018-06-25T21:56:19.649Z,10.80
2018-06-25T21:58:47.693Z,13.17
2018-06-25T22:01:15.729Z,7.07
2018-06-25T22:03:43.786Z,16.63
2018-06-25T22:06:11.826Z,19.23
2018-06-25T22:08:39.858Z,9.90
2018-06-25T22:11:07.893Z,10.63
2018-06-25T22:13:35.979Z,19.33
2018-06-25T22:16:04.034Z,13.07
2018-06-25T22:18:32.000Z,11.10
2018-06-25T22:21:00.066Z,14.30
2018-06-25T22:23:28.098Z,9.60
2018-06-25T22:25:56.134Z,12.07
2018-06-25T22:28:24.181Z,12.20
2018-06-25T22:30:52.221Z,20.43
2018-06-25T22:33:20.269Z,17.77
2018-06-25T22:35:48.297Z,15.13
2018-06-25T22:38:16.334Z,8.67
2018-06-25T22:40:44.381Z,9.87
2018-06-25T22:43:12.418Z,30.50
2018-06-25T22:45:40.874Z,18.40
2018-06-25T22:48:08.922Z,13.90
2018-06-25T22:50:36.966Z,9.83
2018-06-25T22:53:05.017Z,15.23
2018-06-25T22:55:34.825Z,17.70
2018-06-25T22:58:02.925Z,15.23
2018-06-25T23:00:31.509Z,11.93
2018-06-25T23:02:59.553Z,16.67
2018-06-25T23:05:27.636Z,23.37
2018-06-25T23:07:55.734Z,16.97
2018-06-25T23:10:23.765Z,19.93
2018-06-25T23:12:51.811Z,16.43
2018-06-25T23:15:19.848Z,21.33
2018-06-25T23:17:47.936Z,24.33
2018-06-25T23:20:15.974Z,15.43
2018-06-25T23:22:44.032Z,17.00
2018-06-25T23:25:12.283Z,28.67
2018-06-25T23:27:40.531Z,15.70
2018-06-25T23:30:08.738Z,16.40
2018-06-25T23:32:36.765Z,17.53
2018-06-25T23:35:04.810Z,15.63
2018-06-25T23:37:32.860Z,24.13
2018-06-25T23:40:00.917Z,17.83
2018-06-25T23:42:28.965Z,12.10
2018-06-25T23:44:57.008Z,13.20
2018-06-25T23:47:25.057Z,12.70
2018-06-25T23:49:53.081Z,12.90
2018-06-25T23:52:21.242Z,17.60
2018-06-25T23:54:49.279Z,20.90
2018-06-25T23:57:17.324Z,13.43
2018-06-25T23:59:45.370Z,17.00
